sensor_id;sensor_type;location;lat;lon;timestamp;temperature;humidity
36660;DHT22;22654;51.054;3.654;2022-12-16T00:00:07;-1.80;99.90
36660;DHT22;22654;51.054;3.654;2022-12-16T00:02:34;-1.90;99.90
36660;DHT22;22654;51.054;3.654;2022-12-16T00:05:00;-1.90;99.90
36660;DHT22;22654;51.054;3.654;2022-12-16T00:07:27;-1.70;99.90
36660;DHT22;22654;51.054;3.654;2022-12-16T00:09:53;-1.90;99.90
36660;DHT22;22654;51.054;3.654;2022-12-16T00:12:19;-1.60;99.90
36660;DHT22;22654;51.054;3.654;2022-12-16T00:14:45;-1.70;99.90
36660;DHT22;22654;51.054;3.654;2022-12-16T00:17:11;-1.70;99.90
36660;DHT22;22654;51.054;3.654;2022-12-16T00:19:37;-1.80;99.90
36660;DHT22;22654;51.054;3.654;2022-12-16T00:22:03;-1.90;99.90
36660;DHT22;22654;51.054;3.654;2022-12-16T00:24:28;-1.90;99.90
36660;DHT22;22654;51.054;3.654;2022-12-16T00:26:56;-2.00;99.90
36660;DHT22;22654;51.054;3.654;2022-12-16T00:29:22;-2.00;99.90
36660;DHT22;22654;51.054;3.654;2022-12-16T00:31:48;-2.00;99.90
36660;DHT22;22654;51.054;3.654;2022-12-16T00:34:15;-2.10;99.90
36660;DHT22;22654;51.054;3.654;2022-12-16T00:36:42;-2.10;99.90
36660;DHT22;22654;51.054;3.654;2022-12-16T00:39:09;-2.10;99.90
36660;DHT22;22654;51.054;3.654;2022-12-16T00:41:34;-2.00;99.90
36660;DHT22;22654;51.054;3.654;2022-12-16T00:44:00;-2.10;99.90
36660;DHT22;22654;51.054;3.654;2022-12-16T00:46:26;-2.20;99.90
36660;DHT22;22654;51.054;3.654;2022-12-16T00:48:52;-2.20;99.90
36660;DHT22;22654;51.054;3.654;2022-12-16T00:51:18;-2.30;99.90
36660;DHT22;22654;51.054;3.654;2022-12-16T00:53:45;-2.30;99.90
36660;DHT22;22654;51.054;3.654;2022-12-16T00:56:12;-2.20;99.90
36660;DHT22;22654;51.054;3.654;2022-12-16T00:58:47;-2.30;99.90
36660;DHT22;22654;51.054;3.654;2022-12-16T01:01:13;-2.30;99.90
36660;DHT22;22654;51.054;3.654;2022-12-16T01:03:39;-2.20;99.90
36660;DHT22;22654;51.054;3.654;2022-12-16T01:06:16;-2.00;99.90
36660;DHT22;22654;51.054;3.654;2022-12-16T01:08:42;-1.70;99.90
36660;DHT22;22654;51.054;3.654;2022-12-16T01:11:14;-1.60;99.90
36660;DHT22;22654;51.054;3.654;2022-12-16T01:13:41;-1.20;99.90
36660;DHT22;22654;51.054;3.654;2022-12-16T01:16:07;-1.30;99.90
36660;DHT22;22654;51.054;3.654;2022-12-16T01:18:32;-1.00;99.90
36660;DHT22;22654;51.054;3.654;2022-12-16T01:21:03;-0.90;99.90
36660;DHT22;22654;51.054;3.654;2022-12-16T01:23:29;-0.90;99.90
36660;DHT22;22654;51.054;3.654;2022-12-16T01:25:58;-0.50;99.90
36660;DHT22;22654;51.054;3.654;2022-12-16T01:28:25;-0.40;99.90
36660;DHT22;22654;51.054;3.654;2022-12-16T01:30:55;-0.30;99.90
36660;DHT22;22654;51.054;3.654;2022-12-16T01:33:23;-0.60;99.90
36660;DHT22;22654;51.054;3.654;2022-12-16T01:35:48;-0.90;99.90
36660;DHT22;22654;51.054;3.654;2022-12-16T01:38:14;-1.20;99.90
36660;DHT22;22654;51.054;3.654;2022-12-16T01:40:40;-1.20;99.90
36660;DHT22;22654;51.054;3.654;2022-12-16T01:43:11;-1.10;99.90
36660;DHT22;22654;51.054;3.654;2022-12-16T01:45:37;-1.10;99.90
36660;DHT22;22654;51.054;3.654;2022-12-16T01:50:40;-1.40;99.90
36660;DHT22;22654;51.054;3.654;2022-12-16T01:53:07;-1.60;99.90
36660;DHT22;22654;51.054;3.654;2022-12-16T01:55:42;-1.70;99.90
36660;DHT22;22654;51.054;3.654;2022-12-16T01:58:18;-1.70;99.90
36660;DHT22;22654;51.054;3.654;2022-12-16T02:00:45;-1.70;99.90
36660;DHT22;22654;51.054;3.654;2022-12-16T02:03:11;-1.80;99.90
36660;DHT22;22654;51.054;3.654;2022-12-16T02:05:39;-1.90;99.90
36660;DHT22;22654;51.054;3.654;2022-12-16T02:08:12;-1.80;99.90
36660;DHT22;22654;51.054;3.654;2022-12-16T02:13:51;-2.10;99.90
36660;DHT22;22654;51.054;3.654;2022-12-16T02:16:42;-2.00;99.90
36660;DHT22;22654;51.054;3.654;2022-12-16T02:25:10;-1.80;99.90
36660;DHT22;22654;51.054;3.654;2022-12-16T02:33:36;-2.00;99.90
36660;DHT22;22654;51.054;3.654;2022-12-16T02:36:15;-1.90;99.90
36660;DHT22;22654;51.054;3.654;2022-12-16T02:38:58;-2.00;99.90
36660;DHT22;22654;51.054;3.654;2022-12-16T02:41:43;-1.80;99.90
36660;DHT22;22654;51.054;3.654;2022-12-16T02:44:11;-1.40;99.90
36660;DHT22;22654;51.054;3.654;2022-12-16T02:46:40;-1.20;99.90
36660;DHT22;22654;51.054;3.654;2022-12-16T02:51:53;-0.70;99.90
36660;DHT22;22654;51.054;3.654;2022-12-16T02:54:19;-0.70;99.90
36660;DHT22;22654;51.054;3.654;2022-12-16T03:05:15;0.20;99.90
36660;DHT22;22654;51.054;3.654;2022-12-16T03:07:49;0.40;99.90
36660;DHT22;22654;51.054;3.654;2022-12-16T03:10:19;0.60;99.90
36660;DHT22;22654;51.054;3.654;2022-12-16T03:12:46;0.60;99.90
36660;DHT22;22654;51.054;3.654;2022-12-16T03:15:16;0.60;99.90
36660;DHT22;22654;51.054;3.654;2022-12-16T03:17:43;0.70;99.90
36660;DHT22;22654;51.054;3.654;2022-12-16T03:20:23;0.70;99.90
36660;DHT22;22654;51.054;3.654;2022-12-16T03:22:53;0.70;99.90
36660;DHT22;22654;51.054;3.654;2022-12-16T03:25:20;0.80;99.90
36660;DHT22;22654;51.054;3.654;2022-12-16T03:28:08;0.80;99.90
36660;DHT22;22654;51.054;3.654;2022-12-16T03:30:40;0.90;99.90
36660;DHT22;22654;51.054;3.654;2022-12-16T03:33:17;0.80;99.90
36660;DHT22;22654;51.054;3.654;2022-12-16T03:35:49;0.50;99.90
36660;DHT22;22654;51.054;3.654;2022-12-16T03:38:16;0.60;99.90
36660;DHT22;22654;51.054;3.654;2022-12-16T03:40:43;0.80;99.90
36660;DHT22;22654;51.054;3.654;2022-12-16T03:43:10;1.00;99.90
36660;DHT22;22654;51.054;3.654;2022-12-16T03:45:41;1.10;99.90
36660;DHT22;22654;51.054;3.654;2022-12-16T03:48:09;1.10;99.90
36660;DHT22;22654;51.054;3.654;2022-12-16T03:50:37;1.10;99.90
36660;DHT22;22654;51.054;3.654;2022-12-16T03:53:03;1.10;99.90
36660;DHT22;22654;51.054;3.654;2022-12-16T03:55:29;1.10;99.90
36660;DHT22;22654;51.054;3.654;2022-12-16T03:57:55;0.90;99.90
36660;DHT22;22654;51.054;3.654;2022-12-16T04:00:22;0.70;99.90
36660;DHT22;22654;51.054;3.654;2022-12-16T04:02:48;0.90;99.90
36660;DHT22;22654;51.054;3.654;2022-12-16T04:05:14;0.80;99.90
36660;DHT22;22654;51.054;3.654;2022-12-16T04:07:43;0.60;99.90
36660;DHT22;22654;51.054;3.654;2022-12-16T04:10:09;0.60;99.90
36660;DHT22;22654;51.054;3.654;2022-12-16T04:12:35;0.30;99.90
36660;DHT22;22654;51.054;3.654;2022-12-16T04:15:19;0.20;99.90
36660;DHT22;22654;51.054;3.654;2022-12-16T04:18:05;0.60;99.90
36660;DHT22;22654;51.054;3.654;2022-12-16T04:20:53;0.50;99.90
36660;DHT22;22654;51.054;3.654;2022-12-16T04:23:47;0.60;99.90
36660;DHT22;22654;51.054;3.654;2022-12-16T04:26:32;0.60;99.90
36660;DHT22;22654;51.054;3.654;2022-12-16T04:29:18;0.40;99.90
36660;DHT22;22654;51.054;3.654;2022-12-16T04:31:44;0.20;99.90
36660;DHT22;22654;51.054;3.654;2022-12-16T04:34:10;0.00;99.90
36660;DHT22;22654;51.054;3.654;2022-12-16T04:36:56;-0.30;99.90
36660;DHT22;22654;51.054;3.654;2022-12-16T04:39:41;-0.50;99.90
36660;DHT22;22654;51.054;3.654;2022-12-16T04:42:26;-0.70;99.90
36660;DHT22;22654;51.054;3.654;2022-12-16T04:45:11;-0.90;99.90
36660;DHT22;22654;51.054;3.654;2022-12-16T04:47:55;-0.90;99.90
36660;DHT22;22654;51.054;3.654;2022-12-16T04:50:40;-0.90;99.90
36660;DHT22;22654;51.054;3.654;2022-12-16T04:53:24;-0.50;99.90
36660;DHT22;22654;51.054;3.654;2022-12-16T04:56:09;-0.50;99.90
36660;DHT22;22654;51.054;3.654;2022-12-16T04:58:53;-0.40;99.90
36660;DHT22;22654;51.054;3.654;2022-12-16T05:01:38;0.00;99.90
36660;DHT22;22654;51.054;3.654;2022-12-16T05:04:22;0.20;99.90
36660;DHT22;22654;51.054;3.654;2022-12-16T05:07:07;0.40;99.90
36660;DHT22;22654;51.054;3.654;2022-12-16T05:09:52;0.50;99.90
36660;DHT22;22654;51.054;3.654;2022-12-16T05:12:36;0.50;99.90
36660;DHT22;22654;51.054;3.654;2022-12-16T05:15:21;0.40;99.90
36660;DHT22;22654;51.054;3.654;2022-12-16T05:18:13;0.50;99.90
36660;DHT22;22654;51.054;3.654;2022-12-16T05:20:58;0.50;99.90
36660;DHT22;22654;51.054;3.654;2022-12-16T05:23:44;0.50;99.90
36660;DHT22;22654;51.054;3.654;2022-12-16T05:26:28;0.50;99.90
36660;DHT22;22654;51.054;3.654;2022-12-16T05:29:16;0.60;99.90
36660;DHT22;22654;51.054;3.654;2022-12-16T05:32:00;0.60;99.90
36660;DHT22;22654;51.054;3.654;2022-12-16T05:34:44;0.60;99.90
36660;DHT22;22654;51.054;3.654;2022-12-16T05:37:29;0.40;99.90
36660;DHT22;22654;51.054;3.654;2022-12-16T05:40:13;0.20;99.90
36660;DHT22;22654;51.054;3.654;2022-12-16T05:42:57;0.00;99.90
36660;DHT22;22654;51.054;3.654;2022-12-16T05:45:43;-0.30;99.90
36660;DHT22;22654;51.054;3.654;2022-12-16T05:48:27;-0.60;99.90
36660;DHT22;22654;51.054;3.654;2022-12-16T05:51:11;-0.80;99.90
36660;DHT22;22654;51.054;3.654;2022-12-16T05:53:56;-0.90;99.90
36660;DHT22;22654;51.054;3.654;2022-12-16T05:56:40;-1.00;99.90
36660;DHT22;22654;51.054;3.654;2022-12-16T05:59:25;-1.10;99.90
36660;DHT22;22654;51.054;3.654;2022-12-16T06:02:12;-1.20;99.90
36660;DHT22;22654;51.054;3.654;2022-12-16T06:04:57;-1.30;99.90
36660;DHT22;22654;51.054;3.654;2022-12-16T06:07:50;-1.30;99.90
36660;DHT22;22654;51.054;3.654;2022-12-16T06:10:34;-1.40;99.90
36660;DHT22;22654;51.054;3.654;2022-12-16T06:13:18;-1.50;99.90
36660;DHT22;22654;51.054;3.654;2022-12-16T06:16:03;-1.60;99.90
36660;DHT22;22654;51.054;3.654;2022-12-16T06:18:47;-1.70;99.90
36660;DHT22;22654;51.054;3.654;2022-12-16T06:21:31;-1.40;99.90
36660;DHT22;22654;51.054;3.654;2022-12-16T06:24:16;-1.10;99.90
36660;DHT22;22654;51.054;3.654;2022-12-16T06:27:00;-1.00;99.90
36660;DHT22;22654;51.054;3.654;2022-12-16T06:29:45;-1.10;99.90
36660;DHT22;22654;51.054;3.654;2022-12-16T06:32:29;-1.30;99.90
36660;DHT22;22654;51.054;3.654;2022-12-16T06:35:14;-1.20;99.90
36660;DHT22;22654;51.054;3.654;2022-12-16T06:37:58;-1.60;99.90
36660;DHT22;22654;51.054;3.654;2022-12-16T06:40:43;-1.80;99.90
36660;DHT22;22654;51.054;3.654;2022-12-16T06:43:27;-1.90;99.90
36660;DHT22;22654;51.054;3.654;2022-12-16T06:46:12;-1.90;99.90
36660;DHT22;22654;51.054;3.654;2022-12-16T06:48:56;-2.00;99.90
36660;DHT22;22654;51.054;3.654;2022-12-16T06:51:41;-2.10;99.90
36660;DHT22;22654;51.054;3.654;2022-12-16T06:54:25;-2.20;99.90
36660;DHT22;22654;51.054;3.654;2022-12-16T06:57:10;-2.30;99.90
36660;DHT22;22654;51.054;3.654;2022-12-16T06:59:54;-2.40;99.90
36660;DHT22;22654;51.054;3.654;2022-12-16T07:02:39;-2.50;99.90
36660;DHT22;22654;51.054;3.654;2022-12-16T07:05:23;-2.60;99.90
36660;DHT22;22654;51.054;3.654;2022-12-16T07:08:08;-2.30;99.90
36660;DHT22;22654;51.054;3.654;2022-12-16T07:10:52;-2.70;99.90
36660;DHT22;22654;51.054;3.654;2022-12-16T07:13:36;-2.70;99.90
36660;DHT22;22654;51.054;3.654;2022-12-16T07:16:24;-2.70;99.90
36660;DHT22;22654;51.054;3.654;2022-12-16T07:19:08;-2.70;99.90
36660;DHT22;22654;51.054;3.654;2022-12-16T07:21:53;-2.60;99.90
36660;DHT22;22654;51.054;3.654;2022-12-16T07:24:37;-2.40;99.90
36660;DHT22;22654;51.054;3.654;2022-12-16T07:27:22;-2.40;99.90
36660;DHT22;22654;51.054;3.654;2022-12-16T07:30:06;-2.40;99.90
36660;DHT22;22654;51.054;3.654;2022-12-16T07:32:51;-2.50;99.90
36660;DHT22;22654;51.054;3.654;2022-12-16T07:35:35;-2.60;99.90
36660;DHT22;22654;51.054;3.654;2022-12-16T07:38:20;-2.70;99.90
36660;DHT22;22654;51.054;3.654;2022-12-16T07:41:05;-2.80;99.90
36660;DHT22;22654;51.054;3.654;2022-12-16T07:43:49;-2.80;99.90
36660;DHT22;22654;51.054;3.654;2022-12-16T07:46:33;-2.80;99.90
36660;DHT22;22654;51.054;3.654;2022-12-16T07:49:24;-2.90;99.90
36660;DHT22;22654;51.054;3.654;2022-12-16T07:52:08;-2.90;99.90
36660;DHT22;22654;51.054;3.654;2022-12-16T07:55:01;-2.90;99.90
36660;DHT22;22654;51.054;3.654;2022-12-16T07:57:49;-2.90;99.90
36660;DHT22;22654;51.054;3.654;2022-12-16T08:00:34;-2.80;99.90
36660;DHT22;22654;51.054;3.654;2022-12-16T08:03:18;-2.80;99.90
36660;DHT22;22654;51.054;3.654;2022-12-16T08:06:03;-2.70;99.90
36660;DHT22;22654;51.054;3.654;2022-12-16T08:08:47;-2.70;99.90
36660;DHT22;22654;51.054;3.654;2022-12-16T08:11:38;-2.70;99.90
36660;DHT22;22654;51.054;3.654;2022-12-16T08:14:22;-2.50;99.90
36660;DHT22;22654;51.054;3.654;2022-12-16T08:17:07;-2.40;99.90
36660;DHT22;22654;51.054;3.654;2022-12-16T08:19:51;-2.20;99.90
36660;DHT22;22654;51.054;3.654;2022-12-16T08:22:36;-2.30;99.90
36660;DHT22;22654;51.054;3.654;2022-12-16T08:25:22;-2.10;99.90
36660;DHT22;22654;51.054;3.654;2022-12-16T08:28:07;-2.10;99.90
36660;DHT22;22654;51.054;3.654;2022-12-16T08:30:51;-2.20;99.90
36660;DHT22;22654;51.054;3.654;2022-12-16T08:33:36;-2.10;99.90
36660;DHT22;22654;51.054;3.654;2022-12-16T08:36:20;-2.00;99.90
36660;DHT22;22654;51.054;3.654;2022-12-16T08:39:05;-1.80;99.90
36660;DHT22;22654;51.054;3.654;2022-12-16T08:41:49;-1.70;99.90
36660;DHT22;22654;51.054;3.654;2022-12-16T08:44:34;-1.70;99.90
36660;DHT22;22654;51.054;3.654;2022-12-16T08:47:18;-1.80;99.90
36660;DHT22;22654;51.054;3.654;2022-12-16T08:50:03;-1.80;99.90
36660;DHT22;22654;51.054;3.654;2022-12-16T08:52:47;-1.90;99.90
36660;DHT22;22654;51.054;3.654;2022-12-16T08:55:32;-1.90;99.90
36660;DHT22;22654;51.054;3.654;2022-12-16T08:58:16;-1.60;99.90
36660;DHT22;22654;51.054;3.654;2022-12-16T09:01:01;-1.30;99.90
36660;DHT22;22654;51.054;3.654;2022-12-16T09:03:45;-0.90;99.90
36660;DHT22;22654;51.054;3.654;2022-12-16T09:06:30;-0.40;99.90
36660;DHT22;22654;51.054;3.654;2022-12-16T09:09:14;-0.30;99.90
36660;DHT22;22654;51.054;3.654;2022-12-16T09:11:58;-0.60;99.90
36660;DHT22;22654;51.054;3.654;2022-12-16T09:14:43;-0.90;99.90
36660;DHT22;22654;51.054;3.654;2022-12-16T09:17:28;-1.10;99.90
36660;DHT22;22654;51.054;3.654;2022-12-16T09:20:12;-1.20;99.90
36660;DHT22;22654;51.054;3.654;2022-12-16T09:23:01;-1.20;99.90
36660;DHT22;22654;51.054;3.654;2022-12-16T09:25:45;-1.10;99.90
36660;DHT22;22654;51.054;3.654;2022-12-16T09:28:29;-1.10;99.90
36660;DHT22;22654;51.054;3.654;2022-12-16T09:31:14;-1.00;99.90
36660;DHT22;22654;51.054;3.654;2022-12-16T09:33:58;-0.90;99.90
36660;DHT22;22654;51.054;3.654;2022-12-16T09:36:43;-0.60;99.90
36660;DHT22;22654;51.054;3.654;2022-12-16T09:39:27;-0.40;99.90
36660;DHT22;22654;51.054;3.654;2022-12-16T09:42:51;0.10;99.90
36660;DHT22;22654;51.054;3.654;2022-12-16T09:45:55;0.70;99.90
36660;DHT22;22654;51.054;3.654;2022-12-16T09:51:46;1.10;99.90
36660;DHT22;22654;51.054;3.654;2022-12-16T09:54:34;1.00;99.90
36660;DHT22;22654;51.054;3.654;2022-12-16T09:57:20;1.10;99.90
36660;DHT22;22654;51.054;3.654;2022-12-16T10:00:11;0.90;99.90
36660;DHT22;22654;51.054;3.654;2022-12-16T10:02:59;0.70;99.90
36660;DHT22;22654;51.054;3.654;2022-12-16T10:05:57;0.90;99.90
36660;DHT22;22654;51.054;3.654;2022-12-16T10:08:50;0.90;99.90
36660;DHT22;22654;51.054;3.654;2022-12-16T10:11:51;1.00;99.90
36660;DHT22;22654;51.054;3.654;2022-12-16T10:14:52;1.00;99.90
36660;DHT22;22654;51.054;3.654;2022-12-16T10:17:44;1.00;99.90
36660;DHT22;22654;51.054;3.654;2022-12-16T10:20:48;1.10;99.90
36660;DHT22;22654;51.054;3.654;2022-12-16T10:23:45;1.50;99.90
36660;DHT22;22654;51.054;3.654;2022-12-16T10:27:14;1.80;99.90
36660;DHT22;22654;51.054;3.654;2022-12-16T10:29:51;2.10;99.90
36660;DHT22;22654;51.054;3.654;2022-12-16T10:32:40;2.30;99.90
36660;DHT22;22654;51.054;3.654;2022-12-16T10:35:32;2.30;99.90
36660;DHT22;22654;51.054;3.654;2022-12-16T10:38:50;2.40;99.90
36660;DHT22;22654;51.054;3.654;2022-12-16T10:41:39;2.80;99.90
36660;DHT22;22654;51.054;3.654;2022-12-16T10:44:46;2.80;99.90
36660;DHT22;22654;51.054;3.654;2022-12-16T10:47:31;2.70;99.90
36660;DHT22;22654;51.054;3.654;2022-12-16T10:50:15;2.50;99.90
36660;DHT22;22654;51.054;3.654;2022-12-16T10:53:25;2.50;99.90
36660;DHT22;22654;51.054;3.654;2022-12-16T10:59:15;2.50;99.90
36660;DHT22;22654;51.054;3.654;2022-12-16T11:02:03;2.70;99.90
36660;DHT22;22654;51.054;3.654;2022-12-16T11:04:50;2.90;99.90
36660;DHT22;22654;51.054;3.654;2022-12-16T11:10:31;3.50;99.90
36660;DHT22;22654;51.054;3.654;2022-12-16T11:13:31;3.70;99.90
36660;DHT22;22654;51.054;3.654;2022-12-16T11:19:18;3.70;99.90
36660;DHT22;22654;51.054;3.654;2022-12-16T11:22:14;3.90;99.90
36660;DHT22;22654;51.054;3.654;2022-12-16T11:25:19;3.90;99.90
36660;DHT22;22654;51.054;3.654;2022-12-16T11:28:14;3.40;99.90
36660;DHT22;22654;51.054;3.654;2022-12-16T11:31:02;3.30;99.90
36660;DHT22;22654;51.054;3.654;2022-12-16T11:33:48;3.20;99.90
36660;DHT22;22654;51.054;3.654;2022-12-16T11:36:34;3.30;99.90
36660;DHT22;22654;51.054;3.654;2022-12-16T11:39:22;3.70;99.90
36660;DHT22;22654;51.054;3.654;2022-12-16T11:42:20;3.70;99.90
36660;DHT22;22654;51.054;3.654;2022-12-16T11:45:06;3.80;99.90
36660;DHT22;22654;51.054;3.654;2022-12-16T11:48:01;3.60;99.90
36660;DHT22;22654;51.054;3.654;2022-12-16T11:50:55;3.50;99.90
36660;DHT22;22654;51.054;3.654;2022-12-16T11:53:58;3.60;99.90
36660;DHT22;22654;51.054;3.654;2022-12-16T11:56:44;3.80;99.90
36660;DHT22;22654;51.054;3.654;2022-12-16T12:05:43;4.30;99.90
36660;DHT22;22654;51.054;3.654;2022-12-16T12:08:38;4.40;99.90
36660;DHT22;22654;51.054;3.654;2022-12-16T12:14:48;4.10;99.90
36660;DHT22;22654;51.054;3.654;2022-12-16T12:21:09;4.40;99.90
36660;DHT22;22654;51.054;3.654;2022-12-16T12:26:55;4.70;99.90
36660;DHT22;22654;51.054;3.654;2022-12-16T12:39:16;4.80;99.90
36660;DHT22;22654;51.054;3.654;2022-12-16T12:42:35;4.80;99.90
36660;DHT22;22654;51.054;3.654;2022-12-16T12:51:27;4.60;99.90
36660;DHT22;22654;51.054;3.654;2022-12-16T12:57:45;4.70;99.90
36660;DHT22;22654;51.054;3.654;2022-12-16T13:00:37;4.50;99.90
36660;DHT22;22654;51.054;3.654;2022-12-16T13:06:25;4.50;99.90
36660;DHT22;22654;51.054;3.654;2022-12-16T13:09:30;4.70;99.90
36660;DHT22;22654;51.054;3.654;2022-12-16T13:15:05;4.90;99.90
36660;DHT22;22654;51.054;3.654;2022-12-16T13:20:48;5.00;99.90
36660;DHT22;22654;51.054;3.654;2022-12-16T13:23:37;4.90;99.90
36660;DHT22;22654;51.054;3.654;2022-12-16T13:26:24;4.70;99.90
36660;DHT22;22654;51.054;3.654;2022-12-16T13:29:22;4.90;99.90
36660;DHT22;22654;51.054;3.654;2022-12-16T13:32:27;5.00;99.90
36660;DHT22;22654;51.054;3.654;2022-12-16T13:40:58;4.80;99.90
36660;DHT22;22654;51.054;3.654;2022-12-16T13:43:45;4.80;99.90
36660;DHT22;22654;51.054;3.654;2022-12-16T13:52:47;4.70;99.90
36660;DHT22;22654;51.054;3.654;2022-12-16T13:55:54;4.70;99.90
36660;DHT22;22654;51.054;3.654;2022-12-16T13:58:47;4.90;99.90
36660;DHT22;22654;51.054;3.654;2022-12-16T14:04:26;4.80;99.90
36660;DHT22;22654;51.054;3.654;2022-12-16T14:07:13;4.90;99.90
36660;DHT22;22654;51.054;3.654;2022-12-16T14:10:00;5.00;99.90
36660;DHT22;22654;51.054;3.654;2022-12-16T14:13:03;5.10;99.90
36660;DHT22;22654;51.054;3.654;2022-12-16T14:22:53;5.10;99.90
36660;DHT22;22654;51.054;3.654;2022-12-16T14:25:41;5.00;99.90
36660;DHT22;22654;51.054;3.654;2022-12-16T14:28:27;4.90;99.90
36660;DHT22;22654;51.054;3.654;2022-12-16T14:34:21;4.90;99.90
36660;DHT22;22654;51.054;3.654;2022-12-16T14:37:17;4.80;99.90
36660;DHT22;22654;51.054;3.654;2022-12-16T14:40:02;4.70;99.90
36660;DHT22;22654;51.054;3.654;2022-12-16T14:42:51;4.30;99.90
36660;DHT22;22654;51.054;3.654;2022-12-16T14:45:37;4.30;99.90
36660;DHT22;22654;51.054;3.654;2022-12-16T14:48:23;4.10;99.90
36660;DHT22;22654;51.054;3.654;2022-12-16T14:54:18;4.20;99.90
36660;DHT22;22654;51.054;3.654;2022-12-16T14:57:03;3.90;99.90
36660;DHT22;22654;51.054;3.654;2022-12-16T15:02:50;3.70;99.90
36660;DHT22;22654;51.054;3.654;2022-12-16T15:05:36;3.80;99.90
36660;DHT22;22654;51.054;3.654;2022-12-16T15:08:22;3.60;99.90
36660;DHT22;22654;51.054;3.654;2022-12-16T15:11:10;3.50;99.90
36660;DHT22;22654;51.054;3.654;2022-12-16T15:13:59;3.40;99.90
36660;DHT22;22654;51.054;3.654;2022-12-16T15:16:45;3.30;99.90
36660;DHT22;22654;51.054;3.654;2022-12-16T15:19:42;3.20;99.90
36660;DHT22;22654;51.054;3.654;2022-12-16T15:22:27;2.90;99.90
36660;DHT22;22654;51.054;3.654;2022-12-16T15:25:25;2.70;99.90
36660;DHT22;22654;51.054;3.654;2022-12-16T15:28:40;2.50;99.90
36660;DHT22;22654;51.054;3.654;2022-12-16T15:31:31;2.30;99.90
36660;DHT22;22654;51.054;3.654;2022-12-16T15:37:22;2.10;99.90
36660;DHT22;22654;51.054;3.654;2022-12-16T15:40:26;1.90;99.90
36660;DHT22;22654;51.054;3.654;2022-12-16T15:43:26;1.70;99.90
36660;DHT22;22654;51.054;3.654;2022-12-16T15:46:23;1.40;99.90
36660;DHT22;22654;51.054;3.654;2022-12-16T15:49:21;1.20;99.90
36660;DHT22;22654;51.054;3.654;2022-12-16T15:55:25;0.90;99.90
36660;DHT22;22654;51.054;3.654;2022-12-16T15:58:19;0.80;99.90
36660;DHT22;22654;51.054;3.654;2022-12-16T16:01:05;0.80;99.90
36660;DHT22;22654;51.054;3.654;2022-12-16T16:03:52;0.80;99.90
36660;DHT22;22654;51.054;3.654;2022-12-16T16:06:37;0.70;99.90
36660;DHT22;22654;51.054;3.654;2022-12-16T16:09:27;0.50;99.90
36660;DHT22;22654;51.054;3.654;2022-12-16T16:12:14;0.30;99.90
36660;DHT22;22654;51.054;3.654;2022-12-16T16:14:58;0.20;99.90
36660;DHT22;22654;51.054;3.654;2022-12-16T16:17:43;0.10;99.90
36660;DHT22;22654;51.054;3.654;2022-12-16T16:20:28;0.10;99.90
36660;DHT22;22654;51.054;3.654;2022-12-16T16:23:13;0.10;99.90
36660;DHT22;22654;51.054;3.654;2022-12-16T16:25:59;0.10;99.90
36660;DHT22;22654;51.054;3.654;2022-12-16T16:28:43;0.00;99.90
36660;DHT22;22654;51.054;3.654;2022-12-16T16:31:28;-0.10;99.90
36660;DHT22;22654;51.054;3.654;2022-12-16T16:34:12;-0.20;99.90
36660;DHT22;22654;51.054;3.654;2022-12-16T16:36:57;-0.30;99.90
36660;DHT22;22654;51.054;3.654;2022-12-16T16:39:43;-0.40;99.90
36660;DHT22;22654;51.054;3.654;2022-12-16T16:42:28;-0.50;99.90
36660;DHT22;22654;51.054;3.654;2022-12-16T16:45:12;-0.60;99.90
36660;DHT22;22654;51.054;3.654;2022-12-16T16:48:16;-0.70;99.90
36660;DHT22;22654;51.054;3.654;2022-12-16T16:51:02;-0.70;99.90
36660;DHT22;22654;51.054;3.654;2022-12-16T16:53:47;-0.80;99.90
36660;DHT22;22654;51.054;3.654;2022-12-16T16:56:37;-0.80;99.90
36660;DHT22;22654;51.054;3.654;2022-12-16T16:59:22;-0.80;99.90
36660;DHT22;22654;51.054;3.654;2022-12-16T17:02:18;-0.90;99.90
36660;DHT22;22654;51.054;3.654;2022-12-16T17:05:03;-0.90;99.90
36660;DHT22;22654;51.054;3.654;2022-12-16T17:07:48;-1.00;99.90
36660;DHT22;22654;51.054;3.654;2022-12-16T17:10:32;-0.90;99.90
36660;DHT22;22654;51.054;3.654;2022-12-16T17:13:17;-0.90;99.90
36660;DHT22;22654;51.054;3.654;2022-12-16T17:16:01;-0.90;99.90
36660;DHT22;22654;51.054;3.654;2022-12-16T17:18:46;-0.90;99.90
36660;DHT22;22654;51.054;3.654;2022-12-16T17:21:30;-1.00;99.90
36660;DHT22;22654;51.054;3.654;2022-12-16T17:24:14;-0.90;99.90
36660;DHT22;22654;51.054;3.654;2022-12-16T17:27:06;-0.90;99.90
36660;DHT22;22654;51.054;3.654;2022-12-16T17:29:56;-0.90;99.90
36660;DHT22;22654;51.054;3.654;2022-12-16T17:32:40;-1.00;99.90
36660;DHT22;22654;51.054;3.654;2022-12-16T17:35:25;-1.20;99.90
36660;DHT22;22654;51.054;3.654;2022-12-16T17:38:11;-1.20;99.90
36660;DHT22;22654;51.054;3.654;2022-12-16T17:40:55;-1.10;99.90
36660;DHT22;22654;51.054;3.654;2022-12-16T17:43:40;-1.30;99.90
36660;DHT22;22654;51.054;3.654;2022-12-16T17:46:24;-1.40;99.90
36660;DHT22;22654;51.054;3.654;2022-12-16T17:49:09;-1.60;99.90
36660;DHT22;22654;51.054;3.654;2022-12-16T17:51:54;-1.60;99.90
36660;DHT22;22654;51.054;3.654;2022-12-16T17:54:38;-1.60;99.90
36660;DHT22;22654;51.054;3.654;2022-12-16T17:57:23;-1.60;99.90
36660;DHT22;22654;51.054;3.654;2022-12-16T18:00:08;-1.70;99.90
36660;DHT22;22654;51.054;3.654;2022-12-16T18:02:52;-1.60;99.90
36660;DHT22;22654;51.054;3.654;2022-12-16T18:05:37;-1.70;99.90
36660;DHT22;22654;51.054;3.654;2022-12-16T18:08:21;-1.30;99.90
36660;DHT22;22654;51.054;3.654;2022-12-16T18:11:06;-1.40;99.90
36660;DHT22;22654;51.054;3.654;2022-12-16T18:13:50;-1.50;99.90
36660;DHT22;22654;51.054;3.654;2022-12-16T18:16:35;-1.70;99.90
36660;DHT22;22654;51.054;3.654;2022-12-16T18:19:19;-1.80;99.90
36660;DHT22;22654;51.054;3.654;2022-12-16T18:22:04;-1.90;99.90
36660;DHT22;22654;51.054;3.654;2022-12-16T18:24:49;-1.60;99.90
36660;DHT22;22654;51.054;3.654;2022-12-16T18:27:35;-1.50;99.90
36660;DHT22;22654;51.054;3.654;2022-12-16T18:30:20;-1.50;99.90
36660;DHT22;22654;51.054;3.654;2022-12-16T18:33:05;-1.70;99.90
36660;DHT22;22654;51.054;3.654;2022-12-16T18:35:49;-2.00;99.90
36660;DHT22;22654;51.054;3.654;2022-12-16T18:38:36;-2.10;99.90
36660;DHT22;22654;51.054;3.654;2022-12-16T18:41:21;-2.10;99.90
36660;DHT22;22654;51.054;3.654;2022-12-16T18:44:09;-2.10;99.90
36660;DHT22;22654;51.054;3.654;2022-12-16T18:46:54;-2.20;99.90
36660;DHT22;22654;51.054;3.654;2022-12-16T18:49:39;-2.30;99.90
36660;DHT22;22654;51.054;3.654;2022-12-16T18:52:25;-2.40;99.90
36660;DHT22;22654;51.054;3.654;2022-12-16T18:55:09;-2.50;99.90
36660;DHT22;22654;51.054;3.654;2022-12-16T18:57:54;-2.50;99.90
36660;DHT22;22654;51.054;3.654;2022-12-16T19:00:38;-2.50;99.90
36660;DHT22;22654;51.054;3.654;2022-12-16T19:03:22;-2.60;99.90
36660;DHT22;22654;51.054;3.654;2022-12-16T19:06:07;-2.50;99.90
36660;DHT22;22654;51.054;3.654;2022-12-16T19:08:52;-2.60;99.90
36660;DHT22;22654;51.054;3.654;2022-12-16T19:11:36;-2.60;99.90
36660;DHT22;22654;51.054;3.654;2022-12-16T19:14:20;-2.60;99.90
36660;DHT22;22654;51.054;3.654;2022-12-16T19:17:05;-2.60;99.90
36660;DHT22;22654;51.054;3.654;2022-12-16T19:19:49;-2.60;99.90